createdAt,value
2023-03-07T00:01:35.413Z,5.00
2023-03-07T00:04:05.347Z,5.40
2023-03-07T00:06:34.060Z,4.80
2023-03-07T00:09:04.720Z,5.30
2023-03-07T00:11:35.121Z,5.30
2023-03-07T00:14:08.574Z,5.50
2023-03-07T00:16:37.418Z,2.60
2023-03-07T00:19:08.268Z,5.40
2023-03-07T00:21:36.976Z,1.80
2023-03-07T00:24:06.567Z,5.50
2023-03-07T00:26:39.698Z,5.40
2023-03-07T00:29:11.105Z,5.50
2023-03-07T00:31:40.017Z,4.30
2023-03-07T00:34:08.918Z,4.50
2023-03-07T00:36:38.094Z,3.30
2023-03-07T00:39:10.780Z,5.30
2023-03-07T00:41:43.660Z,4.40
2023-03-07T00:44:14.624Z,3.80
2023-03-07T00:46:43.374Z,5.60
2023-03-07T00:50:47.723Z,1.10
2023-03-07T00:52:05.412Z,5.50
2023-03-07T00:54:34.442Z,5.50
2023-03-07T00:57:07.754Z,5.30
2023-03-07T00:59:36.490Z,3.30
2023-03-07T01:02:07.985Z,5.40
2023-03-07T01:04:39.172Z,5.20
2023-03-07T01:07:08.016Z,1.70
2023-03-07T01:09:39.585Z,2.70
2023-03-07T01:12:10.609Z,5.10
2023-03-07T01:14:39.446Z,4.50
2023-03-07T01:17:10.557Z,4.60
2023-03-07T01:19:45.910Z,5.10
2023-03-07T01:22:14.856Z,3.60
2023-03-07T01:24:44.106Z,3.20
2023-03-07T01:27:14.693Z,4.80
2023-03-07T01:30:55.837Z,4.60
2023-03-07T01:33:30.528Z,3.50
2023-03-07T01:36:01.718Z,3.50
2023-03-07T01:38:34.131Z,3.60
2023-03-07T01:41:03.566Z,2.90
2023-03-07T01:43:37.885Z,4.50
2023-03-07T01:46:38.576Z,3.50
2023-03-07T01:49:14.511Z,3.40
2023-03-07T01:51:49.575Z,3.90
2023-03-07T01:54:21.900Z,4.60
2023-03-07T01:56:53.002Z,4.80
2023-03-07T01:59:32.931Z,4.80
2023-03-07T02:02:09.140Z,4.90
2023-03-07T02:04:47.254Z,0.50
2023-03-07T02:07:17.697Z,2.80
2023-03-07T02:09:50.150Z,3.50
2023-03-07T02:12:41.874Z,4.80
2023-03-07T02:15:15.214Z,5.00
2023-03-07T02:17:45.455Z,4.90
2023-03-07T02:20:32.981Z,4.80
2023-03-07T02:23:08.698Z,2.50
2023-03-07T02:25:50.100Z,-0.40
2023-03-07T02:28:21.181Z,4.90
2023-03-07T02:31:02.301Z,4.70
2023-03-07T02:33:33.354Z,4.70
2023-03-07T02:36:06.836Z,4.60
2023-03-07T02:38:42.840Z,4.60
2023-03-07T02:41:18.951Z,4.70
2023-03-07T02:43:49.555Z,1.50
2023-03-07T02:46:21.210Z,3.90
2023-03-07T02:48:54.014Z,0.60
2023-03-07T02:51:37.347Z,3.30
2023-03-07T02:54:09.453Z,4.60
2023-03-07T02:57:17.747Z,1.60
2023-03-07T02:59:59.533Z,4.70
2023-03-07T03:02:30.353Z,4.00
2023-03-07T03:05:04.085Z,4.40
2023-03-07T03:07:37.250Z,4.40
2023-03-07T03:10:09.654Z,4.10
2023-03-07T03:12:45.720Z,3.80
2023-03-07T03:15:18.990Z,3.60
2023-03-07T03:17:50.110Z,3.20
2023-03-07T03:20:19.432Z,3.70
2023-03-07T03:22:48.413Z,1.00
2023-03-07T03:25:32.053Z,3.90
2023-03-07T03:31:17.277Z,-0.70
2023-03-07T03:33:53.916Z,3.90
2023-03-07T03:36:26.294Z,-0.60
2023-03-07T03:38:56.858Z,3.70
2023-03-07T03:41:27.142Z,3.50
2023-03-07T03:44:04.685Z,1.40
2023-03-07T03:46:44.007Z,3.50
2023-03-07T03:49:27.075Z,3.90
2023-03-07T03:51:56.010Z,3.70
2023-03-07T03:54:46.179Z,3.80
2023-03-07T03:57:28.533Z,-1.20
2023-03-07T04:00:17.350Z,4.00
2023-03-07T04:06:51.944Z,4.30
2023-03-07T04:10:24.188Z,-1.70
2023-03-07T04:16:23.851Z,4.10
2023-03-07T04:18:54.437Z,4.20
2023-03-07T04:21:25.634Z,1.50
2023-03-07T04:23:58.496Z,3.90
2023-03-07T04:26:30.634Z,-0.30
2023-03-07T04:28:59.597Z,1.00
2023-03-07T04:31:32.129Z,2.40
2023-03-07T04:34:04.669Z,4.30
2023-03-07T04:36:33.523Z,2.90
2023-03-07T04:39:09.318Z,3.90
2023-03-07T04:41:38.053Z,3.40
2023-03-07T04:44:16.927Z,3.00
2023-03-07T04:47:01.245Z,3.40
2023-03-07T04:49:35.351Z,0.60
2023-03-07T04:52:16.964Z,0.40
2023-03-07T04:54:57.790Z,4.20
2023-03-07T04:58:52.672Z,4.90
2023-03-07T05:01:04.908Z,4.80
2023-03-07T05:03:38.069Z,3.10
2023-03-07T05:06:16.810Z,4.80
2023-03-07T05:08:48.515Z,3.60
2023-03-07T05:11:19.038Z,4.90
2023-03-07T05:13:57.002Z,3.70
2023-03-07T05:16:30.002Z,3.70
2023-03-07T05:19:06.123Z,-0.20
2023-03-07T05:21:41.035Z,4.80
2023-03-07T05:24:12.251Z,0.80
2023-03-07T05:26:47.452Z,3.60
2023-03-07T05:29:22.424Z,5.00
2023-03-07T05:32:12.152Z,5.00
2023-03-07T05:34:46.057Z,4.90
2023-03-07T05:38:28.326Z,4.80
2023-03-07T05:41:14.936Z,3.60
2023-03-07T05:43:53.137Z,4.70
2023-03-07T05:46:24.153Z,2.80
2023-03-07T05:49:05.973Z,4.90
2023-03-07T05:51:52.531Z,5.10
2023-03-07T05:56:17.107Z,3.60
2023-03-07T05:59:55.022Z,3.60
2023-03-07T06:02:50.677Z,3.70
2023-03-07T06:06:36.618Z,4.00
2023-03-07T06:10:16.252Z,5.20
2023-03-07T06:18:33.354Z,-0.50
2023-03-07T06:31:58.176Z,5.30
2023-03-07T06:34:45.031Z,5.20
2023-03-07T06:37:32.568Z,5.50
2023-03-07T06:41:37.744Z,5.60
2023-03-07T06:45:14.770Z,5.50
2023-03-07T06:50:35.374Z,0.20
2023-03-07T06:54:03.382Z,5.80
2023-03-07T06:57:00.402Z,5.90
2023-03-07T07:00:55.616Z,5.10
2023-03-07T07:03:25.861Z,2.00
2023-03-07T07:15:38.548Z,1.30
2023-03-07T07:18:56.372Z,2.80
2023-03-07T07:22:00.898Z,5.50
2023-03-07T07:24:01.834Z,6.50
2023-03-07T07:26:30.735Z,6.00
2023-03-07T07:29:02.556Z,1.50
2023-03-07T07:31:31.811Z,7.00
2023-03-07T07:34:02.192Z,6.80
2023-03-07T07:36:36.550Z,6.80
2023-03-07T07:39:15.310Z,7.20
2023-03-07T07:41:44.636Z,7.40
2023-03-07T07:44:15.681Z,2.50
2023-03-07T07:46:46.172Z,7.60
2023-03-07T07:49:18.583Z,5.20
2023-03-07T07:51:47.568Z,7.80
2023-03-07T07:54:18.525Z,4.20
2023-03-07T07:56:47.598Z,8.20
2023-03-07T07:59:16.558Z,4.70
2023-03-07T08:01:45.230Z,8.10
2023-03-07T08:04:15.795Z,8.00
2023-03-07T08:06:44.712Z,7.90
2023-03-07T08:09:14.774Z,6.30
2023-03-07T08:11:43.782Z,6.60
2023-03-07T08:14:14.881Z,8.40
2023-03-07T08:16:44.021Z,8.60
2023-03-07T08:19:12.865Z,8.70
2023-03-07T08:21:43.045Z,5.50
2023-03-07T08:24:15.040Z,8.80
2023-03-07T08:26:43.707Z,8.40
2023-03-07T08:29:12.734Z,8.30
2023-03-07T08:31:44.720Z,8.00
2023-03-07T08:34:13.794Z,7.90
2023-03-07T08:36:43.901Z,8.60
2023-03-07T08:39:13.277Z,5.40
2023-03-07T08:41:41.990Z,8.50
2023-03-07T08:44:10.662Z,8.20
2023-03-07T08:46:39.367Z,5.80
2023-03-07T08:49:08.063Z,6.00
2023-03-07T08:51:36.626Z,6.00
2023-03-07T08:54:06.817Z,8.40
2023-03-07T08:56:35.526Z,8.60
2023-03-07T08:59:04.277Z,6.80
2023-03-07T09:01:33.390Z,8.70
2023-03-07T09:04:02.528Z,8.30
2023-03-07T09:06:31.020Z,8.40
2023-03-07T09:08:59.508Z,8.30
2023-03-07T09:11:29.876Z,6.40
2023-03-07T09:13:58.433Z,8.80
2023-03-07T09:16:27.043Z,9.40
2023-03-07T09:18:55.652Z,7.40
2023-03-07T09:21:24.250Z,6.70
2023-03-07T09:23:52.983Z,7.60
2023-03-07T09:26:21.815Z,8.40
2023-03-07T09:28:51.796Z,8.10
2023-03-07T09:31:20.412Z,5.10
2023-03-07T09:33:49.073Z,5.50
2023-03-07T09:36:19.754Z,7.60
2023-03-07T09:38:49.183Z,7.90
2023-03-07T09:41:53.433Z,7.20
2023-03-07T09:44:49.213Z,6.90
2023-03-07T09:47:57.427Z,7.40
2023-03-07T09:50:39.026Z,7.10
2023-03-07T09:53:17.475Z,7.50
2023-03-07T09:55:46.452Z,3.40
2023-03-07T09:58:23.227Z,7.00
2023-03-07T10:01:00.079Z,7.40
2023-03-07T10:03:40.127Z,5.70
2023-03-07T10:06:17.584Z,5.30
2023-03-07T10:08:46.436Z,7.10
2023-03-07T10:11:29.849Z,7.30
2023-03-07T10:14:33.041Z,4.80
2023-03-07T10:17:14.551Z,7.40
2023-03-07T10:19:50.785Z,6.80
2023-03-07T10:22:31.997Z,8.20
2023-03-07T10:25:17.478Z,8.70
2023-03-07T10:27:48.865Z,8.30
2023-03-07T10:30:19.629Z,8.00
2023-03-07T10:32:54.878Z,6.80
2023-03-07T10:35:25.329Z,7.60
2023-03-07T10:37:59.797Z,6.80
2023-03-07T10:40:36.013Z,7.20
2023-03-07T10:43:06.874Z,7.90
2023-03-07T10:45:35.417Z,8.00
2023-03-07T10:48:15.661Z,8.20
2023-03-07T10:50:54.645Z,8.00
2023-03-07T10:53:27.795Z,7.60
2023-03-07T10:56:15.409Z,8.40
2023-03-07T10:59:03.155Z,7.30
2023-03-07T11:01:33.735Z,8.70
2023-03-07T11:04:06.442Z,8.10
2023-03-07T11:06:40.449Z,6.70
2023-03-07T11:09:29.877Z,9.20
2023-03-07T11:12:01.168Z,6.80
2023-03-07T11:14:31.446Z,9.00
2023-03-07T11:17:03.512Z,8.70
2023-03-07T11:19:40.999Z,8.70
2023-03-07T11:22:24.844Z,7.70
2023-03-07T11:25:02.458Z,6.40
2023-03-07T11:27:38.978Z,5.40
2023-03-07T11:30:25.319Z,8.20
2023-03-07T11:33:13.086Z,8.40
2023-03-07T11:36:01.161Z,7.20
2023-03-07T11:38:42.611Z,8.70
2023-03-07T11:41:20.783Z,8.70
2023-03-07T11:44:19.389Z,8.40
2023-03-07T11:47:27.770Z,7.40
2023-03-07T11:50:17.689Z,8.00
2023-03-07T11:53:26.178Z,8.30
2023-03-07T11:56:19.180Z,8.00
2023-03-07T11:59:37.544Z,8.00
2023-03-07T12:02:38.600Z,8.10
2023-03-07T12:05:37.869Z,7.50
2023-03-07T12:08:41.981Z,8.20
2023-03-07T12:11:30.578Z,8.20
2023-03-07T12:14:15.205Z,9.10
2023-03-07T12:16:59.888Z,10.50
2023-03-07T12:19:54.088Z,11.60
2023-03-07T12:22:30.097Z,11.70
2023-03-07T12:25:19.678Z,8.40
2023-03-07T12:27:59.717Z,7.90
2023-03-07T12:30:41.078Z,9.60
2023-03-07T12:33:22.836Z,8.40
2023-03-07T12:35:58.897Z,9.30
2023-03-07T12:38:39.603Z,7.70
2023-03-07T12:41:36.367Z,9.40
2023-03-07T12:44:16.895Z,7.00
2023-03-07T12:47:32.116Z,10.30
2023-03-07T12:50:22.680Z,12.30
2023-03-07T12:53:22.781Z,13.80
2023-03-07T12:57:09.478Z,14.30
2023-03-07T13:18:27.456Z,14.20
2023-03-07T13:21:31.971Z,15.60
2023-03-07T13:24:39.998Z,16.20
2023-03-07T13:27:17.694Z,15.60
2023-03-07T13:30:20.338Z,14.90
2023-03-07T13:33:00.544Z,15.90
2023-03-07T13:35:59.249Z,16.80
2023-03-07T13:38:35.863Z,16.50
2023-03-07T13:41:05.821Z,16.00
2023-03-07T13:44:00.095Z,14.90
2023-03-07T13:46:48.687Z,14.40
2023-03-07T13:49:42.480Z,12.80
2023-03-07T13:52:34.353Z,11.10
2023-03-07T13:55:15.555Z,11.80
2023-03-07T13:57:44.896Z,12.10
2023-03-07T14:00:41.919Z,9.00
2023-03-07T14:03:30.358Z,11.80
2023-03-07T14:06:05.597Z,10.50
2023-03-07T14:08:37.188Z,11.80
2023-03-07T14:11:15.152Z,12.20
2023-03-07T14:14:29.065Z,10.80
2023-03-07T14:17:29.202Z,11.50
2023-03-07T14:20:15.412Z,11.90
2023-03-07T14:23:06.871Z,11.30
2023-03-07T14:25:38.472Z,10.90
2023-03-07T14:28:23.185Z,10.30
2023-03-07T14:30:58.851Z,10.30
2023-03-07T14:33:35.889Z,11.90
2023-03-07T14:36:16.573Z,13.80
2023-03-07T14:38:48.432Z,15.30
2023-03-07T14:41:42.578Z,13.10
2023-03-07T14:44:58.873Z,12.90
2023-03-07T14:47:47.790Z,14.90
2023-03-07T14:50:20.327Z,16.00
2023-03-07T14:52:50.422Z,14.20
2023-03-07T14:55:22.811Z,13.70
2023-03-07T14:57:56.082Z,14.00
2023-03-07T15:00:29.646Z,13.50
2023-03-07T15:03:00.753Z,11.20
2023-03-07T15:05:34.873Z,11.50
2023-03-07T15:08:03.501Z,10.80
2023-03-07T15:10:40.752Z,10.30
2023-03-07T15:13:21.914Z,8.70
2023-03-07T15:15:56.155Z,9.50
2023-03-07T15:18:30.447Z,9.50
2023-03-07T15:21:01.665Z,8.60
2023-03-07T15:23:31.456Z,6.60
2023-03-07T15:26:05.364Z,8.40
2023-03-07T15:28:38.760Z,5.90
2023-03-07T15:31:09.223Z,9.10
2023-03-07T15:33:38.514Z,8.80
2023-03-07T15:36:27.398Z,8.80
2023-03-07T15:39:34.908Z,7.10
2023-03-07T15:42:07.494Z,8.30
2023-03-07T15:44:38.710Z,8.40
2023-03-07T15:47:18.450Z,8.50
2023-03-07T15:49:51.331Z,8.20
2023-03-07T15:52:30.417Z,7.90
2023-03-07T15:55:01.628Z,5.60
2023-03-07T15:57:35.249Z,7.20
2023-03-07T16:00:19.319Z,7.10
2023-03-07T16:02:49.632Z,2.40
2023-03-07T16:05:38.997Z,7.00
2023-03-07T16:08:16.189Z,4.60
2023-03-07T16:10:52.266Z,6.50
2023-03-07T16:13:24.255Z,7.50
2023-03-07T16:16:17.880Z,7.60
2023-03-07T16:18:46.884Z,7.50
2023-03-07T16:21:18.218Z,6.00
2023-03-07T16:23:48.229Z,3.20
2023-03-07T16:26:20.961Z,7.90
2023-03-07T16:28:50.558Z,5.80
2023-03-07T16:31:21.535Z,7.70
2023-03-07T16:33:50.714Z,7.50
2023-03-07T16:36:19.432Z,4.10
2023-03-07T16:38:48.830Z,7.00
2023-03-07T16:41:20.684Z,7.80
2023-03-07T16:43:55.340Z,6.30
2023-03-07T16:46:27.016Z,7.90
2023-03-07T16:48:55.703Z,7.80
2023-03-07T16:51:28.298Z,3.80
2023-03-07T16:53:59.799Z,7.70
2023-03-07T16:56:34.784Z,7.50
2023-03-07T16:59:03.599Z,7.50
2023-03-07T17:01:34.177Z,7.50
2023-03-07T17:04:02.862Z,7.50
2023-03-07T17:06:39.197Z,4.40
2023-03-07T17:09:09.727Z,7.80
2023-03-07T17:11:40.516Z,7.90
2023-03-07T17:14:12.318Z,8.00
2023-03-07T17:16:47.100Z,5.40
2023-03-07T17:19:26.163Z,7.80
2023-03-07T17:21:55.397Z,6.10
2023-03-07T17:24:24.061Z,7.90
2023-03-07T17:26:53.945Z,7.60
2023-03-07T17:29:32.272Z,6.10
2023-03-07T17:32:02.625Z,4.50
2023-03-07T17:34:34.576Z,7.50
2023-03-07T17:37:04.245Z,7.90
2023-03-07T17:39:34.451Z,7.40
2023-03-07T17:42:04.149Z,7.50
2023-03-07T17:44:34.014Z,6.10
2023-03-07T17:47:04.130Z,7.20
2023-03-07T17:49:37.972Z,7.00
2023-03-07T17:52:08.952Z,7.00
2023-03-07T17:54:37.787Z,3.50
2023-03-07T17:57:11.328Z,3.80
2023-03-07T17:59:40.084Z,6.40
2023-03-07T18:02:12.911Z,6.20
2023-03-07T18:04:42.538Z,6.10
2023-03-07T18:07:11.479Z,3.30
2023-03-07T18:09:40.434Z,5.20
2023-03-07T18:12:10.452Z,5.70
2023-03-07T18:14:38.998Z,5.70
2023-03-07T18:17:10.202Z,5.70
2023-03-07T18:19:39.934Z,5.70
2023-03-07T18:22:08.642Z,1.10
2023-03-07T18:24:37.651Z,5.50
2023-03-07T18:27:08.709Z,2.30
2023-03-07T18:29:37.400Z,5.00
2023-03-07T18:32:06.706Z,4.60
2023-03-07T18:34:36.687Z,4.70
2023-03-07T18:37:08.246Z,4.70
2023-03-07T18:39:36.766Z,4.30
2023-03-07T18:42:08.310Z,4.70
2023-03-07T18:44:39.602Z,4.50
2023-03-07T18:47:08.500Z,4.70
2023-03-07T18:49:39.283Z,4.30
2023-03-07T18:52:07.950Z,4.80
2023-03-07T18:54:36.568Z,5.00
2023-03-07T18:57:05.344Z,5.00
2023-03-07T18:59:33.970Z,5.10
2023-03-07T19:02:03.157Z,5.30
2023-03-07T19:04:32.194Z,5.30
2023-03-07T19:07:03.537Z,5.40
2023-03-07T19:09:32.470Z,5.30
2023-03-07T19:12:01.130Z,5.20
2023-03-07T19:14:30.029Z,5.40
2023-03-07T19:16:58.625Z,3.20
2023-03-07T19:19:27.207Z,5.60
2023-03-07T19:21:55.762Z,2.00
2023-03-07T19:24:25.721Z,2.40
2023-03-07T19:26:54.279Z,5.50
2023-03-07T19:29:22.943Z,5.60
2023-03-07T19:31:51.553Z,3.70
2023-03-07T19:34:20.221Z,5.60
2023-03-07T19:36:48.825Z,4.60
2023-03-07T19:39:20.574Z,5.40
2023-03-07T19:41:50.675Z,5.40
2023-03-07T19:44:19.566Z,5.40
2023-03-07T19:46:48.194Z,5.20
2023-03-07T19:49:18.304Z,5.20
2023-03-07T19:51:46.884Z,4.70
2023-03-07T19:54:16.436Z,5.10
2023-03-07T19:56:45.769Z,5.20
2023-03-07T19:59:16.013Z,5.40
2023-03-07T20:01:44.766Z,5.40
2023-03-07T20:04:14.911Z,4.40
2023-03-07T20:06:45.032Z,4.60
2023-03-07T20:09:14.919Z,5.50
2023-03-07T20:11:44.374Z,5.50
2023-03-07T20:14:15.559Z,3.60
2023-03-07T20:16:44.143Z,5.50
2023-03-07T20:19:12.652Z,5.50
2023-03-07T20:21:43.487Z,5.50
2023-03-07T20:24:12.916Z,5.50
2023-03-07T20:26:41.429Z,5.50
2023-03-07T20:29:12.091Z,5.40
2023-03-07T20:31:42.454Z,5.40
2023-03-07T20:34:12.506Z,5.20
2023-03-07T20:36:43.861Z,1.60
2023-03-07T20:39:15.138Z,5.10
2023-03-07T20:41:45.120Z,5.10
2023-03-07T20:44:15.972Z,4.00
2023-03-07T20:46:46.083Z,2.50
2023-03-07T20:49:16.156Z,2.30
2023-03-07T20:51:45.304Z,5.10
2023-03-07T20:54:16.683Z,5.10
2023-03-07T20:56:47.497Z,5.20
2023-03-07T20:59:19.056Z,5.30
2023-03-07T21:01:49.399Z,5.20
2023-03-07T21:04:20.734Z,5.40
2023-03-07T21:06:50.228Z,2.60
2023-03-07T21:09:20.053Z,5.60
2023-03-07T21:11:50.882Z,5.60
2023-03-07T21:14:21.190Z,5.70
2023-03-07T21:16:51.170Z,5.50
2023-03-07T21:19:20.265Z,5.40
2023-03-07T21:21:48.693Z,5.50
2023-03-07T21:24:17.156Z,5.20
2023-03-07T21:26:45.700Z,5.50
2023-03-07T21:29:14.293Z,5.70
2023-03-07T21:31:42.854Z,3.80
2023-03-07T21:34:15.222Z,4.30
2023-03-07T21:36:45.798Z,5.00
2023-03-07T21:39:14.423Z,5.70
2023-03-07T21:41:42.861Z,4.80
2023-03-07T21:44:11.679Z,5.60
2023-03-07T21:46:40.237Z,5.50
2023-03-07T21:49:09.113Z,5.60
2023-03-07T21:51:39.212Z,5.50
2023-03-07T21:54:07.828Z,5.50
2023-03-07T21:56:36.400Z,5.00
2023-03-07T21:59:04.847Z,5.70
2023-03-07T22:01:33.441Z,5.60
2023-03-07T22:04:02.007Z,5.50
2023-03-07T22:06:30.737Z,5.50
2023-03-07T22:09:01.765Z,5.60
2023-03-07T22:11:30.270Z,3.50
2023-03-07T22:13:58.771Z,5.60
2023-03-07T22:16:27.295Z,5.20
2023-03-07T22:18:57.203Z,5.60
2023-03-07T22:21:26.671Z,5.80
2023-03-07T22:23:58.098Z,3.00
2023-03-07T22:26:29.679Z,5.80
2023-03-07T22:28:58.536Z,5.80
2023-03-07T22:31:27.531Z,5.70
2023-03-07T22:33:56.275Z,3.60
2023-03-07T22:36:24.908Z,5.70
2023-03-07T22:38:56.418Z,6.00
2023-03-07T22:41:27.335Z,6.10
2023-03-07T22:43:56.144Z,5.80
2023-03-07T22:46:25.128Z,6.00
2023-03-07T22:48:54.984Z,6.10
2023-03-07T22:51:26.123Z,6.00
2023-03-07T22:53:55.253Z,6.00
2023-03-07T22:56:25.741Z,6.30
2023-03-07T22:58:56.125Z,6.40
2023-03-07T23:01:28.148Z,6.20
2023-03-07T23:03:58.890Z,5.90
2023-03-07T23:06:32.065Z,6.00
2023-03-07T23:09:02.044Z,5.80
2023-03-07T23:11:33.336Z,6.00
2023-03-07T23:14:05.609Z,6.00
2023-03-07T23:16:36.492Z,3.40
2023-03-07T23:19:05.698Z,5.50
2023-03-07T23:21:35.291Z,3.20
2023-03-07T23:24:05.351Z,5.70
2023-03-07T23:26:38.076Z,5.50
2023-03-07T23:29:11.686Z,5.10
2023-03-07T23:31:42.920Z,5.60
2023-03-07T23:34:17.462Z,3.10
2023-03-07T23:36:46.585Z,5.60
2023-03-07T23:39:17.622Z,5.60
2023-03-07T23:41:46.260Z,3.90
2023-03-07T23:44:16.179Z,5.80
2023-03-07T23:46:44.656Z,5.50
2023-03-07T23:49:13.409Z,5.90
2023-03-07T23:51:41.976Z,5.90
2023-03-07T23:54:10.478Z,5.90
2023-03-07T23:56:38.971Z,4.50
2023-03-07T23:59:07.442Z,5.70
